^^
Station Historical Data
Daily Summary for February 14, 2018 Units:  Metric    English   Both
« Previous Day
Next Day »
Daily Weekly Monthly Yearly Custom
  High: Low: Average:
Temperature: -17.8 °C -1.1 °C 4.3 °C
Dew Point: -17.8 °C -3.9 °C 0.6 °C
Humidity: Humidity% 62% 77%
Wind Speed: 0km/h 0km/h 2.3km/h
Wind Gust: 0km/h - -
Wind- - SSW
Pressure: 0 hPa 1017.8 hPa -
Precipitation: 0.76 mm    
Historical Graphs
 
 
Tabular Data for February 14, 2018
Time Temperature Dew Point Pressure Wind Wind Speed Wind Gust Humidity Rainfall Rate (Hourly) Conditions
-17.8 °C -17.8 °C 0 hPa Calm     Humidity% 0 mm Conditions
00:00 -1.1 °C -3.9 °C 1036.1 hPa Calm     81% 0 mm BKN
00:10 -1 °C -3.8 °C 1036.1 hPa Calm   1.6 km/h 81% 0 mm BKN
00:20 -0.9 °C -3.8 °C 1035.8 hPa Calm   3.2 km/h 81% 0 mm BKN
00:30 -0.9 °C -3.9 °C 1035.4 hPa Calm   1.6 km/h 80% 0 mm BKN
00:40 -0.9 °C -3.7 °C 1035.4 hPa Calm     81% 0 mm BKN
00:50 -0.9 °C -3.7 °C 1035.1 hPa Calm     81% 0 mm BKN
01:00 -0.9 °C -3.7 °C 1034.8 hPa Calm     81% 0 mm BKN
01:10 -0.9 °C -3.7 °C 1034.8 hPa Calm   1.6 km/h 81% 0 mm BKN
01:20 -0.9 °C -3.7 °C 1034.4 hPa Calm   1.6 km/h 81% 0 mm BKN
01:30 -1.1 °C -3.7 °C 1034.4 hPa Calm   1.6 km/h 82% 0 mm BKN
01:39 -1.1 °C -3.8 °C 1034.4 hPa Calm     82% 0 mm BKN
01:50 -1.1 °C -3.7 °C 1034.1 hPa Calm   1.6 km/h 82% 0 mm BKN
02:00 -1 °C -3.7 °C 1034.4 hPa Calm   1.6 km/h 82% 0 mm BKN
02:10 -0.9 °C -3.6 °C 1033.7 hPa Calm   1.6 km/h 82% 0 mm BKN
02:20 -0.8 °C -3.3 °C 1033.7 hPa Calm   3.2 km/h 83% 0 mm BKN
02:30 -0.7 °C -3.3 °C 1033.4 hPa Calm   4.8 km/h 83% 0 mm BKN
02:40 -0.7 °C -3.2 °C 1033.1 hPa South 1.6 km/h 6.4 km/h 83% 0 mm BKN
02:50 -0.6 °C -3.1 °C 1033.1 hPa Calm   3.2 km/h 83% 0 mm BKN
02:59 -0.4 °C -3 °C 1032.7 hPa South 1.6 km/h 4.8 km/h 83% 0 mm BKN
03:10 -0.4 °C -2.8 °C 1032.4 hPa Calm   3.2 km/h 84% 0 mm BKN
03:20 -0.3 °C -2.7 °C 1031.7 hPa Calm   4.8 km/h 84% 0 mm BKN
03:30 -0.4 °C -2.9 °C 1031.4 hPa Calm   3.2 km/h 83% 0 mm BKN
03:40 -0.3 °C -2.7 °C 1031 hPa South 1.6 km/h 6.4 km/h 84% 0 mm BKN
03:50 -0.1 °C -2.3 °C 1031 hPa SSW 1.6 km/h 6.4 km/h 85% 0 mm BKN
04:00 0.1 °C -2 °C 1031.4 hPa SW 1.6 km/h 11.3 km/h 86% 0 mm BKN
04:20 0.1 °C -1.7 °C 1030.7 hPa SSW 1.6 km/h 8 km/h 88% 0 mm OVC
04:30 0.2 °C -1.6 °C 1031 hPa SW 8 km/h 14.5 km/h 88% 0 mm OVC
04:40 0.3 °C -1.5 °C 1031 hPa SSW 1.6 km/h 14.5 km/h 88% 0 mm OVC
04:50 0.3 °C -1.4 °C 1031 hPa SSW 1.6 km/h 9.7 km/h 88% 0 mm OVC
05:00 0.4 °C -1.4 °C 1030.7 hPa SW 1.6 km/h 11.3 km/h 88% 0 mm OVC
05:10 0.3 °C -1.3 °C 1030.7 hPa SSW 1.6 km/h 4.8 km/h 89% 0 mm BKN
05:20 0.2 °C -1.4 °C 1030.4 hPa Calm   3.2 km/h 89% 0 mm BKN
05:30 0.2 °C -1.3 °C 1030.4 hPa Calm   4.8 km/h 90% 0 mm BKN
05:40 0.2 °C -1.3 °C 1030.4 hPa Calm   6.4 km/h 90% 0 mm BKN
05:50 0.2 °C -1.3 °C 1030 hPa SSW 3.2 km/h 9.7 km/h 90% 0 mm BKN
06:00 0.2 °C -1.2 °C 1030 hPa SSW 3.2 km/h 9.7 km/h 90% 0 mm BKN
06:10 0.3 °C -1.3 °C 1030 hPa SSW 4.8 km/h 8 km/h 89% 0 mm BKN
06:20 0.3 °C -1.3 °C 1030 hPa SSW 1.6 km/h 6.4 km/h 89% 0 mm BKN
06:30 0.3 °C -1.3 °C 1029.7 hPa South 1.6 km/h 8 km/h 89% 0 mm BKN
06:40 0.4 °C -1.2 °C 1029.7 hPa SSW 1.6 km/h 8 km/h 89% 0 mm BKN
06:50 0.4 °C -1.2 °C 1029.7 hPa SW 1.6 km/h 8 km/h 89% 0 mm BKN
07:00 0.5 °C -1.1 °C 1029.7 hPa SSW 4.8 km/h 9.7 km/h 89% 0 mm BKN
07:10 0.5 °C -1.1 °C 1029.7 hPa SSW 3.2 km/h 8 km/h 89% 0 mm BKN
07:20 0.6 °C -1.1 °C 1029.7 hPa SSW 3.2 km/h 8 km/h 89% 0 mm BKN
07:30 0.6 °C -1 °C 1029.3 hPa SSW 1.6 km/h 8 km/h 89% 0 mm BKN
07:40 0.7 °C -1.1 °C 1029.7 hPa SSW 3.2 km/h 12.9 km/h 88% 0 mm BKN
07:50 0.8 °C -1.2 °C 1029.7 hPa SSW 3.2 km/h 11.3 km/h 87% 0 mm BKN
07:59 0.8 °C -1.1 °C 1029.7 hPa SSW 1.6 km/h 8 km/h 87% 0 mm BKN
08:10 0.9 °C -1.1 °C 1029.3 hPa SW 4.8 km/h 9.7 km/h 87% 0 mm BKN
08:20 0.9 °C -1.2 °C 1029 hPa SSW 9.7 km/h 14.5 km/h 86% 0 mm BKN
08:30 0.9 °C -1.1 °C 1029.3 hPa SW 1.6 km/h 11.3 km/h 86% 0 mm BKN
08:40 0.9 °C -1.3 °C 1029 hPa SSW 1.6 km/h 9.7 km/h 85% 0 mm BKN
08:50 1 °C -1.2 °C 1029 hPa SSW 3.2 km/h 12.9 km/h 85% 0 mm BKN
09:00 1.1 °C -1.3 °C 1028.7 hPa SW 3.2 km/h 11.3 km/h 84% 0 mm BKN
09:09 1.3 °C -1.2 °C 1028.7 hPa SSW 4.8 km/h 14.5 km/h 84% 0 mm BKN
09:20 1.3 °C -1.1 °C 1028.7 hPa SSW 8 km/h 14.5 km/h 84% 0 mm BKN
09:29 1.5 °C -0.9 °C 1028.3 hPa SSW 8 km/h 19.3 km/h 84% 0 mm BKN
09:40 1.6 °C -0.9 °C 1028 hPa SW 4.8 km/h 14.5 km/h 83% 0.25 mm RA
09:50 1.8 °C -0.9 °C 1028.3 hPa SW 4.8 km/h 14.5 km/h 82% 0 mm BKN
10:00 2.1 °C -0.8 °C 1028 hPa South 3.2 km/h 14.5 km/h 81% 0 mm BKN
10:10 2.3 °C -0.8 °C 1027.7 hPa SSW 9.7 km/h 19.3 km/h 80% 0 mm BKN
10:30 2.8 °C -0.7 °C 1027.7 hPa SW 1.6 km/h 19.3 km/h 78% 0 mm BKN
10:40 2.9 °C -0.6 °C 1027.7 hPa SSW 8 km/h 19.3 km/h 78% 0 mm BKN
10:50 3.3 °C -0.5 °C 1027.3 hPa SSW 3.2 km/h 16.1 km/h 76% 0 mm BKN
10:59 3.4 °C -0.4 °C 1027.3 hPa SSW 4.8 km/h 14.5 km/h 76% 0 mm BKN
11:10 3.8 °C -0.2 °C 1027 hPa WSW 4.8 km/h 19.3 km/h 75% 0 mm BKN
11:20 4.3 °C -0.1 °C 1027 hPa SSW 9.7 km/h 16.1 km/h 73% 0 mm BKN
11:30 4.7 °C 0.3 °C 1026.6 hPa SSW 3.2 km/h 11.3 km/h 73% 0 mm BKN
11:40 5.1 °C 0.4 °C 1026.6 hPa SSW 4.8 km/h 16.1 km/h 72% 0 mm BKN
11:50 4.8 °C -0.1 °C 1026.3 hPa WSW 4.8 km/h 12.9 km/h 71% 0 mm BKN
12:00 4.9 °C 0.1 °C 1026.3 hPa SW 3.2 km/h 12.9 km/h 71% 0 mm BKN
12:10 5.3 °C 0.4 °C 1026 hPa West 1.6 km/h 12.9 km/h 71% 0 mm BKN
12:20 5.4 °C 0.6 °C 1025.6 hPa SW 4.8 km/h 11.3 km/h 71% 0 mm BKN
12:30 5.8 °C 1 °C 1025.3 hPa SSW 3.2 km/h 14.5 km/h 71% 0 mm BKN
12:40 6.2 °C 0.9 °C 1025.3 hPa WSW 4.8 km/h 11.3 km/h 69% 0 mm BKN
12:50 6.5 °C 1.2 °C 1024.9 hPa WSW 1.6 km/h 8 km/h 69% 0 mm BKN
13:00 6.6 °C 1.2 °C 1024.6 hPa SW 3.2 km/h 16.1 km/h 68% 0 mm BKN
13:10 6.3 °C 0.8 °C 1024.6 hPa WSW 4.8 km/h 9.7 km/h 68% 0 mm SCT
13:20 6.3 °C 1.3 °C 1024.3 hPa Calm   8 km/h 70% 0 mm SCT
13:30 6.4 °C 1.3 °C 1024.3 hPa WSW 3.2 km/h 9.7 km/h 70% 0 mm SCT
13:40 6.4 °C 1.3 °C 1023.9 hPa WSW 1.6 km/h 8 km/h 70% 0 mm SCT
13:50 6.6 °C 1.5 °C 1023.9 hPa Calm   11.3 km/h 70% 0 mm SCT
13:59 6.8 °C 1.4 °C 1023.6 hPa Calm   11.3 km/h 69% 0 mm SCT
14:10 7.1 °C 1.6 °C 1023.2 hPa SW 3.2 km/h 6.4 km/h 68% 0 mm BKN
14:19 7.2 °C 1.7 °C 1023.2 hPa SW 1.6 km/h 11.3 km/h 68% 0 mm BKN
14:30 7.6 °C 1.8 °C 1023.2 hPa SSW 3.2 km/h 9.7 km/h 67% 0 mm BKN
14:39 7.8 °C 1.8 °C 1023.2 hPa SSW 1.6 km/h 6.4 km/h 66% 0 mm BKN
14:49 7.8 °C 1.9 °C 1022.9 hPa SSW 3.2 km/h 9.7 km/h 66% 0 mm BKN
15:00 8.2 °C 2.2 °C 1022.6 hPa Calm   6.4 km/h 66% 0 mm BKN
15:09 8.4 °C 2.4 °C 1022.6 hPa Calm   6.4 km/h 66% 0 mm BKN
15:20 8.7 °C 2.5 °C 1022.2 hPa SW 1.6 km/h 9.7 km/h 65% 0 mm BKN
15:30 8.9 °C 2.7 °C 1021.9 hPa SW 3.2 km/h 9.7 km/h 65% 0 mm BKN
15:39 9.2 °C 2.7 °C 1021.9 hPa SW 4.8 km/h 11.3 km/h 64% 0 mm BKN
15:50 9.3 °C 2.9 °C 1021.6 hPa SSW 8 km/h 16.1 km/h 64% 0 mm BKN
16:00 9.7 °C 3.2 °C 1021.6 hPa SW 8 km/h 11.3 km/h 64% 0 mm BKN
16:10 10.2 °C 3.4 °C 1021.6 hPa SSW 3.2 km/h 11.3 km/h 63% 0 mm FEW
16:20 10.2 °C 3.3 °C 1021.2 hPa SW 4.8 km/h 12.9 km/h 62% 0 mm FEW
16:30 10.3 °C 3.3 °C 1021.2 hPa WSW 3.2 km/h 14.5 km/h 62% 0 mm FEW
16:40 10.4 °C 3.4 °C 1021.2 hPa SW 1.6 km/h 11.3 km/h 62% 0 mm FEW
16:50 10.1 °C 3.4 °C 1021.2 hPa Calm   8 km/h 63% 0 mm FEW
17:00 9.9 °C 3.4 °C 1020.9 hPa Calm   9.7 km/h 64% 0 mm FEW
17:10 9.8 °C 3.5 °C 1020.9 hPa South 1.6 km/h 6.4 km/h 65% 0 mm SCT
17:20 9.7 °C 3.5 °C 1020.9 hPa South 1.6 km/h 6.4 km/h 65% 0 mm SCT
17:29 9.7 °C 3.8 °C 1020.9 hPa SW 1.6 km/h 11.3 km/h 67% 0 mm SCT
17:39 9.6 °C 3.7 °C 1020.9 hPa Calm   12.9 km/h 67% 0 mm SCT
17:49 9.6 °C 3.9 °C 1020.9 hPa SW 3.2 km/h 12.9 km/h 68% 0 mm SCT
18:00 9.6 °C 3.9 °C 1020.9 hPa SW 1.6 km/h 11.3 km/h 68% 0 mm SCT
18:10 9.6 °C 3.9 °C 1020.9 hPa SSW 4.8 km/h 11.3 km/h 68% 0 mm BKN
18:20 9.6 °C 3.9 °C 1020.9 hPa SW 3.2 km/h 11.3 km/h 68% 0 mm BKN
18:30 9.6 °C 4.2 °C 1020.9 hPa SSW 1.6 km/h 6.4 km/h 69% 0 mm BKN
18:40 9.4 °C 4.1 °C 1020.9 hPa SW 1.6 km/h 9.7 km/h 69% 0 mm BKN
18:49 9.3 °C 4.1 °C 1020.5 hPa Calm   6.4 km/h 70% 0 mm BKN
19:00 9.2 °C 4.2 °C 1020.5 hPa WSW 1.6 km/h 6.4 km/h 71% 0 mm BKN
19:10 9.1 °C 4.1 °C 1020.5 hPa SW 1.6 km/h 6.4 km/h 71% 0 mm BKN
19:19 9 °C 4.2 °C 1020.2 hPa SW 1.6 km/h 4.8 km/h 72% 0 mm BKN
19:30 8.9 °C 3.9 °C 1020.2 hPa WSW 3.2 km/h 8 km/h 71% 0 mm BKN
19:40 8.7 °C 3.9 °C 1020.2 hPa Calm   8 km/h 72% 0 mm BKN
19:50 8.6 °C 4 °C 1020.2 hPa SW 3.2 km/h 8 km/h 73% 0 mm BKN
19:59 8.4 °C 3.9 °C 1020.2 hPa Calm   6.4 km/h 73% 0 mm BKN
20:10 8.2 °C 3.6 °C 1020.2 hPa Calm   3.2 km/h 73% 0 mm SCT
20:20 7.9 °C 3.6 °C 1020.2 hPa Calm     74% 0 mm SCT
20:30 7.7 °C 3.5 °C 1020.2 hPa Calm   4.8 km/h 75% 0 mm SCT
20:40 7.6 °C 3.6 °C 1020.2 hPa Calm   1.6 km/h 76% 0 mm SCT
20:50 7.6 °C 3.7 °C 1019.9 hPa Calm   1.6 km/h 76% 0 mm SCT
20:59 7.6 °C 3.6 °C 1019.9 hPa SSW 1.6 km/h 3.2 km/h 76% 0 mm SCT
21:10 7.6 °C 3.7 °C 1019.9 hPa Calm   3.2 km/h 76% 0 mm SCT
21:20 7.8 °C 3.9 °C 1019.5 hPa Calm   3.2 km/h 76% 0 mm SCT
21:30 8 °C 3.8 °C 1019.5 hPa Calm   1.6 km/h 75% 0 mm SCT
21:39 7.7 °C 3.8 °C 1019.5 hPa Calm   1.6 km/h 76% 0 mm SCT
21:50 7.8 °C 3.7 °C 1019.2 hPa SSW 1.6 km/h 4.8 km/h 75% 0 mm SCT
22:00 8 °C 3.7 °C 1019.2 hPa SSW 1.6 km/h 4.8 km/h 74% 0 mm SCT
22:09 8 °C 3.7 °C 1018.8 hPa SSW 1.6 km/h 6.4 km/h 74% 0 mm BKN
22:20 8.2 °C 3.8 °C 1018.8 hPa Calm   4.8 km/h 74% 0 mm BKN
22:30 8.1 °C 3.8 °C 1018.5 hPa South 1.6 km/h 6.4 km/h 74% 0 mm BKN
22:40 8.2 °C 3.8 °C 1018.5 hPa South 3.2 km/h 8 km/h 74% 0 mm BKN
22:50 8.1 °C 4.3 °C 1018.5 hPa SSW 1.6 km/h 6.4 km/h 77% 0 mm BKN
22:59 7.7 °C 4.3 °C 1018.5 hPa Calm   4.8 km/h 79% 0 mm BKN
23:09 7.4 °C 4.6 °C 1018.2 hPa Calm   3.2 km/h 82% 0.25 mm -RA
23:20 7.2 °C 4.7 °C 1018.2 hPa Calm   3.2 km/h 84% 0 mm -RA
23:30 6.9 °C 4.6 °C 1017.8 hPa Calm   4.8 km/h 85% 0 mm -RA
23:39 6.8 °C 4.8 °C 1017.8 hPa South 3.2 km/h 3.2 km/h 87% 0 mm RA
23:49 6.6 °C 4.9 °C 1017.8 hPa SSW 4.8 km/h 8 km/h 89% 0.25 mm RA
23:59 6.6 °C 4.9 °C 1017.8 hPa SW 8 km/h 11.3 km/h 89% 0 mm
TarryTown NY Weather
Compliments of Weather Underground - 1.75 mb